createdAt,value
2017-05-17T00:00:17.805Z,927.84
2017-05-17T00:00:46.061Z,927.84
2017-05-17T00:01:14.267Z,927.8
2017-05-17T00:02:25.556Z,927.84
2017-05-17T00:02:53.964Z,927.8
2017-05-17T00:03:22.140Z,927.84
2017-05-17T00:03:50.372Z,927.81
2017-05-17T00:04:18.731Z,927.85
2017-05-17T00:04:47.085Z,927.91
2017-05-17T00:05:15.134Z,927.88
2017-05-17T00:05:43.459Z,927.87
2017-05-17T00:06:11.785Z,927.9
2017-05-17T00:06:40.134Z,927.86
2017-05-17T00:07:08.243Z,927.95
2017-05-17T00:08:19.531Z,927.96
2017-05-17T00:08:47.844Z,928.05
2017-05-17T00:09:16.214Z,928.03
2017-05-17T00:09:44.357Z,928.04
2017-05-17T00:10:12.614Z,928.09
2017-05-17T00:10:40.883Z,928
2017-05-17T00:11:09.120Z,927.96
2017-05-17T00:11:37.348Z,927.98
2017-05-17T00:12:05.673Z,928.01
2017-05-17T00:12:33.926Z,928.06
2017-05-17T00:13:02.225Z,927.99
2017-05-17T00:14:13.614Z,928.01
2017-05-17T00:14:41.931Z,928.03
2017-05-17T00:15:10.304Z,928.05
2017-05-17T00:15:38.535Z,928.05
2017-05-17T00:16:06.792Z,928.01
2017-05-17T00:16:35.144Z,927.94
2017-05-17T00:17:03.472Z,927.97
2017-05-17T00:17:31.796Z,927.97
2017-05-17T00:18:00.212Z,927.98
2017-05-17T00:18:28.467Z,927.94
2017-05-17T00:18:56.571Z,927.96
2017-05-17T00:20:07.861Z,927.91
2017-05-17T00:20:36.271Z,927.88
2017-05-17T00:21:04.547Z,927.89
2017-05-17T00:21:32.875Z,927.88
2017-05-17T00:22:01.036Z,927.94
2017-05-17T00:22:29.298Z,927.83
2017-05-17T00:22:57.532Z,927.89
2017-05-17T00:23:25.867Z,927.82
2017-05-17T00:23:54.097Z,927.84
2017-05-17T00:24:22.355Z,927.81
2017-05-17T00:24:50.657Z,927.83
2017-05-17T00:26:02.046Z,927.87
2017-05-17T00:26:30.358Z,927.89
2017-05-17T00:26:58.734Z,927.9
2017-05-17T00:27:27.062Z,927.88
2017-05-17T00:27:55.318Z,927.9
2017-05-17T00:28:23.582Z,927.9
2017-05-17T00:28:51.908Z,927.94
2017-05-17T00:29:20.224Z,927.92
2017-05-17T00:29:48.636Z,927.96
2017-05-17T00:30:16.791Z,927.89
2017-05-17T00:30:44.996Z,927.95
2017-05-17T00:31:56.299Z,927.93
2017-05-17T00:32:24.608Z,927.95
2017-05-17T00:32:52.754Z,927.87
2017-05-17T00:33:20.987Z,927.86
2017-05-17T00:33:49.337Z,927.82
2017-05-17T00:34:17.604Z,927.87
2017-05-17T00:34:45.834Z,927.82
2017-05-17T00:35:14.065Z,927.82
2017-05-17T00:35:42.478Z,927.83
2017-05-17T00:36:10.636Z,927.88
2017-05-17T00:36:38.834Z,927.81
2017-05-17T00:37:50.310Z,927.83
2017-05-17T00:38:18.623Z,927.84
2017-05-17T00:38:46.907Z,927.9
2017-05-17T00:39:15.135Z,927.88
2017-05-17T00:39:43.482Z,927.93
2017-05-17T00:40:11.746Z,927.97
2017-05-17T00:40:39.794Z,927.92
2017-05-17T00:41:08.254Z,928.02
2017-05-17T00:41:36.623Z,927.89
2017-05-17T00:42:04.792Z,927.94
2017-05-17T00:42:32.998Z,927.95
2017-05-17T00:43:44.477Z,928.03
2017-05-17T00:44:12.886Z,927.98
2017-05-17T00:44:41.259Z,927.98
2017-05-17T00:45:09.303Z,927.98
2017-05-17T00:45:37.661Z,927.95
2017-05-17T00:46:05.937Z,927.92
2017-05-17T00:46:34.172Z,927.95
2017-05-17T00:47:02.496Z,927.96
2017-05-17T00:47:30.911Z,927.97
2017-05-17T00:47:59.170Z,927.98
2017-05-17T00:48:27.467Z,927.93
2017-05-17T00:49:38.945Z,927.93
2017-05-17T00:50:07.262Z,927.93
2017-05-17T00:50:35.531Z,928
2017-05-17T00:51:03.669Z,927.91
2017-05-17T00:51:31.929Z,927.99
2017-05-17T00:52:00.007Z,928.01
2017-05-17T00:52:28.149Z,927.97
2017-05-17T00:52:56.565Z,927.95
2017-05-17T00:53:24.880Z,927.98
2017-05-17T00:53:53.042Z,927.93
2017-05-17T00:54:21.245Z,927.89
2017-05-17T00:55:32.529Z,927.86
2017-05-17T00:56:00.746Z,927.82
2017-05-17T00:56:28.930Z,927.76
2017-05-17T00:56:57.260Z,927.78
2017-05-17T00:57:25.521Z,927.76
2017-05-17T00:57:53.783Z,927.78
2017-05-17T00:58:22.022Z,927.79
2017-05-17T00:58:50.437Z,927.83
2017-05-17T00:59:18.754Z,927.85
2017-05-17T00:59:47.096Z,927.91
2017-05-17T01:00:15.390Z,927.9
2017-05-17T01:01:26.769Z,928
2017-05-17T01:01:55.083Z,928.05
2017-05-17T01:02:23.447Z,928.02
2017-05-17T01:02:51.681Z,928.09
2017-05-17T01:03:19.935Z,928.13
2017-05-17T01:03:48.106Z,928.1
2017-05-17T01:04:16.431Z,928.1
2017-05-17T01:04:44.756Z,928.09
2017-05-17T01:05:12.985Z,928.1
2017-05-17T01:05:41.237Z,928.05
2017-05-17T01:06:09.446Z,928.06
2017-05-17T01:07:20.825Z,928.04
2017-05-17T01:07:49.139Z,927.99
2017-05-17T01:08:17.319Z,928.03
2017-05-17T01:08:45.460Z,928.03
2017-05-17T01:09:13.715Z,928.04
2017-05-17T01:09:41.987Z,928.06
2017-05-17T01:10:10.313Z,928.1
2017-05-17T01:10:38.733Z,928.14
2017-05-17T01:11:07.058Z,928.14
2017-05-17T01:11:35.400Z,928.16
2017-05-17T01:12:03.787Z,928.2
2017-05-17T01:13:15.262Z,928.23
2017-05-17T01:13:43.577Z,928.32
2017-05-17T01:14:11.754Z,928.28
2017-05-17T01:14:40.084Z,928.33
2017-05-17T01:15:08.345Z,928.28
2017-05-17T01:15:36.613Z,928.29
2017-05-17T01:16:04.839Z,928.33
2017-05-17T01:16:33.170Z,928.34
2017-05-17T01:17:01.395Z,928.29
2017-05-17T01:17:29.557Z,928.25
2017-05-17T01:17:57.855Z,928.24
2017-05-17T01:19:09.240Z,928.21
2017-05-17T01:19:37.651Z,928.19
2017-05-17T01:20:05.923Z,928.17
2017-05-17T01:20:34.153Z,928.21
2017-05-17T01:21:02.417Z,928.17
2017-05-17T01:21:30.768Z,928.2
2017-05-17T01:21:59.008Z,928.19
2017-05-17T01:22:27.331Z,928.22
2017-05-17T01:22:55.562Z,928.22
2017-05-17T01:23:23.819Z,928.22
2017-05-17T01:23:52.205Z,928.22
2017-05-17T01:25:03.679Z,928.2
2017-05-17T01:25:31.992Z,928.23
2017-05-17T01:26:00.270Z,928.24
2017-05-17T01:26:28.594Z,928.23
2017-05-17T01:26:56.850Z,928.25
2017-05-17T01:27:25.113Z,928.19
2017-05-17T01:27:53.343Z,928.19
2017-05-17T01:28:21.785Z,928.21
2017-05-17T01:28:50.114Z,928.2
2017-05-17T01:29:18.456Z,928.19
2017-05-17T01:29:46.573Z,928.2
2017-05-17T01:30:57.966Z,928.18
2017-05-17T01:31:26.277Z,928.19
2017-05-17T01:31:54.645Z,928.16
2017-05-17T01:32:22.974Z,928.19
2017-05-17T01:32:51.382Z,928.19
2017-05-17T01:33:19.589Z,928.15
2017-05-17T01:33:47.829Z,928.19
2017-05-17T01:34:16.252Z,928.19
2017-05-17T01:34:44.665Z,928.17
2017-05-17T01:35:12.736Z,928.18
2017-05-17T01:35:40.940Z,928.16
2017-05-17T01:36:52.324Z,928.23
2017-05-17T01:37:20.731Z,928.2
2017-05-17T01:37:48.916Z,928.25
2017-05-17T01:38:17.064Z,928.21
2017-05-17T01:38:45.319Z,928.22
2017-05-17T01:39:13.485Z,928.2
2017-05-17T01:39:41.815Z,928.2
2017-05-17T01:40:10.230Z,928.24
2017-05-17T01:40:38.650Z,928.26
2017-05-17T01:41:06.901Z,928.2
2017-05-17T01:41:35.193Z,928.21
2017-05-17T01:42:46.669Z,928.2
2017-05-17T01:43:14.980Z,928.17
2017-05-17T01:43:43.348Z,928.15
2017-05-17T01:44:11.490Z,928.16
2017-05-17T01:44:39.653Z,928.16
2017-05-17T01:45:08.006Z,928.2
2017-05-17T01:45:36.241Z,928.21
2017-05-17T01:46:04.563Z,928.18
2017-05-17T01:46:32.886Z,928.26
2017-05-17T01:47:01.045Z,928.23
2017-05-17T01:47:29.252Z,928.21
2017-05-17T01:48:40.632Z,928.2
2017-05-17T01:49:08.851Z,928.23
2017-05-17T01:49:37.218Z,928.19
2017-05-17T01:50:05.448Z,928.21
2017-05-17T01:50:33.705Z,928.27
2017-05-17T01:51:02.062Z,928.21
2017-05-17T01:51:30.204Z,928.22
2017-05-17T01:51:58.625Z,928.22
2017-05-17T01:52:26.943Z,928.25
2017-05-17T01:52:55.200Z,928.26
2017-05-17T01:53:23.497Z,928.28
2017-05-17T01:54:34.971Z,928.27
2017-05-17T01:55:03.375Z,928.3
2017-05-17T01:55:31.651Z,928.27
2017-05-17T01:55:59.795Z,928.32
2017-05-17T01:56:28.049Z,928.29
2017-05-17T01:56:56.319Z,928.29
2017-05-17T01:57:24.462Z,928.28
2017-05-17T01:57:52.885Z,928.33
2017-05-17T01:58:21.207Z,928.33
2017-05-17T01:58:49.462Z,928.31
2017-05-17T01:59:17.850Z,928.33
2017-05-17T02:00:29.330Z,928.36
2017-05-17T02:00:57.642Z,928.35
2017-05-17T02:01:25.919Z,928.38
2017-05-17T02:01:54.250Z,928.35
2017-05-17T02:02:22.602Z,928.35
2017-05-17T02:02:50.766Z,928.38
2017-05-17T02:03:19.098Z,928.36
2017-05-17T02:03:47.421Z,928.36
2017-05-17T02:04:15.836Z,928.31
2017-05-17T02:04:43.999Z,928.29
2017-05-17T02:05:12.288Z,928.28
2017-05-17T02:06:23.589Z,928.27
2017-05-17T02:06:51.901Z,928.27
2017-05-17T02:07:20.274Z,928.24
2017-05-17T02:07:48.604Z,928.25
2017-05-17T02:08:16.771Z,928.26
2017-05-17T02:08:45.032Z,928.24
2017-05-17T02:09:13.365Z,928.27
2017-05-17T02:09:41.684Z,928.27
2017-05-17T02:10:10.006Z,928.29
2017-05-17T02:10:38.260Z,928.31
2017-05-17T02:11:06.462Z,928.28
2017-05-17T02:12:17.935Z,928.26
2017-05-17T02:12:46.345Z,928.31
2017-05-17T02:13:14.623Z,928.33
2017-05-17T02:13:42.951Z,928.32
2017-05-17T02:14:11.213Z,928.36
2017-05-17T02:14:39.477Z,928.38
2017-05-17T02:15:07.801Z,928.39
2017-05-17T02:15:36.225Z,928.36
2017-05-17T02:16:04.494Z,928.35
2017-05-17T02:16:32.661Z,928.36
2017-05-17T02:17:00.952Z,928.38
2017-05-17T02:18:12.335Z,928.36
2017-05-17T02:18:40.655Z,928.35
2017-05-17T02:19:09.021Z,928.35
2017-05-17T02:19:37.259Z,928.36
2017-05-17T02:20:05.609Z,928.36
2017-05-17T02:20:33.777Z,928.36
2017-05-17T02:21:02.007Z,928.38
2017-05-17T02:21:30.329Z,928.38
2017-05-17T02:21:58.646Z,928.38
2017-05-17T02:22:26.807Z,928.43
2017-05-17T02:22:55.014Z,928.43
2017-05-17T02:24:06.487Z,928.4
2017-05-17T02:24:34.796Z,928.46
2017-05-17T02:25:03.207Z,928.44
2017-05-17T02:25:31.484Z,928.43
2017-05-17T02:25:59.556Z,928.4
2017-05-17T02:26:27.818Z,928.42
2017-05-17T02:26:56.146Z,928.42
2017-05-17T02:27:24.464Z,928.41
2017-05-17T02:27:52.699Z,928.41
2017-05-17T02:28:21.044Z,928.38
2017-05-17T02:28:49.434Z,928.42
2017-05-17T02:30:00.723Z,928.38
2017-05-17T02:30:28.942Z,928.38
2017-05-17T02:30:57.306Z,928.41
2017-05-17T02:31:25.537Z,928.39
2017-05-17T02:31:53.891Z,928.42
2017-05-17T02:32:21.979Z,928.39
2017-05-17T02:32:50.122Z,928.44
2017-05-17T02:33:18.437Z,928.41
2017-05-17T02:33:46.665Z,928.42
2017-05-17T02:34:14.827Z,928.43
2017-05-17T02:34:43.027Z,928.45
2017-05-17T02:35:54.500Z,928.45
2017-05-17T02:36:22.813Z,928.46
2017-05-17T02:36:51.179Z,928.43
2017-05-17T02:37:19.411Z,928.43
2017-05-17T02:37:47.484Z,928.44
2017-05-17T02:38:15.841Z,928.44
2017-05-17T02:38:44.166Z,928.48
2017-05-17T02:39:12.401Z,928.46
2017-05-17T02:39:40.819Z,928.45
2017-05-17T02:40:09.162Z,928.45
2017-05-17T02:40:37.550Z,928.44
2017-05-17T02:41:49.028Z,928.44
2017-05-17T02:42:17.341Z,928.49
2017-05-17T02:42:45.706Z,928.51
2017-05-17T02:43:13.944Z,928.46
2017-05-17T02:43:42.198Z,928.44
2017-05-17T02:44:10.551Z,928.44
2017-05-17T02:44:38.692Z,928.43
2017-05-17T02:45:07.017Z,928.45
2017-05-17T02:45:35.338Z,928.44
2017-05-17T02:46:03.592Z,928.46
2017-05-17T02:46:31.695Z,928.42
2017-05-17T02:47:43.174Z,928.38
2017-05-17T02:48:11.484Z,928.42
2017-05-17T02:48:39.666Z,928.4
2017-05-17T02:49:07.897Z,928.43
2017-05-17T02:49:36.066Z,928.41
2017-05-17T02:50:04.424Z,928.43
2017-05-17T02:50:32.749Z,928.4
2017-05-17T02:51:01.164Z,928.45
2017-05-17T02:51:29.582Z,928.43
2017-05-17T02:51:57.933Z,928.41
2017-05-17T02:52:26.136Z,928.43
2017-05-17T02:53:37.521Z,928.42
2017-05-17T02:54:05.839Z,928.44
2017-05-17T02:54:34.110Z,928.42
2017-05-17T02:55:02.340Z,928.39
2017-05-17T02:55:30.688Z,928.42
2017-05-17T02:55:59.007Z,928.43
2017-05-17T02:56:27.289Z,928.39
2017-05-17T02:56:55.701Z,928.4
2017-05-17T02:57:24.116Z,928.45
2017-05-17T02:57:52.462Z,928.45
2017-05-17T02:58:20.586Z,928.47
2017-05-17T02:59:31.966Z,928.47
2017-05-17T03:00:00.281Z,928.43
2017-05-17T03:00:28.659Z,928.46
2017-05-17T03:00:56.792Z,928.4
2017-05-17T03:01:25.145Z,928.37
2017-05-17T03:01:53.502Z,928.36
2017-05-17T03:02:21.832Z,928.37
2017-05-17T03:02:50.164Z,928.35
2017-05-17T03:03:18.483Z,928.34
2017-05-17T03:03:46.742Z,928.37
2017-05-17T03:04:15.045Z,928.35
2017-05-17T03:05:26.521Z,928.36
2017-05-17T03:05:54.835Z,928.33
2017-05-17T03:06:23.109Z,928.38
2017-05-17T03:06:51.345Z,928.33
2017-05-17T03:07:19.607Z,928.36
2017-05-17T03:07:47.959Z,928.35
2017-05-17T03:08:16.200Z,928.33
2017-05-17T03:08:44.526Z,928.3
2017-05-17T03:09:12.660Z,928.34
2017-05-17T03:09:41.010Z,928.32
2017-05-17T03:10:09.211Z,928.32
2017-05-17T03:11:20.689Z,928.35
2017-05-17T03:11:49.096Z,928.28
2017-05-17T03:12:17.285Z,928.27
2017-05-17T03:12:45.612Z,928.29
2017-05-17T03:13:13.959Z,928.29
2017-05-17T03:13:42.141Z,928.31
2017-05-17T03:14:10.379Z,928.31
2017-05-17T03:14:38.695Z,928.32
2017-05-17T03:15:07.012Z,928.34
2017-05-17T03:15:35.150Z,928.33
2017-05-17T03:16:03.353Z,928.35
2017-05-17T03:17:14.830Z,928.33
2017-05-17T03:17:43.244Z,928.34
2017-05-17T03:18:11.518Z,928.33
2017-05-17T03:18:39.750Z,928.33
2017-05-17T03:19:08.094Z,928.3
2017-05-17T03:19:36.451Z,928.28
2017-05-17T03:20:04.687Z,928.3
2017-05-17T03:20:33.003Z,928.28
2017-05-17T03:21:01.231Z,928.28
2017-05-17T03:21:29.577Z,928.27
2017-05-17T03:21:57.777Z,928.24
2017-05-17T03:23:09.253Z,928.28
2017-05-17T03:23:37.661Z,928.29
2017-05-17T03:24:05.933Z,928.29
2017-05-17T03:24:34.167Z,928.29
2017-05-17T03:25:02.419Z,928.26
2017-05-17T03:25:30.680Z,928.25
2017-05-17T03:25:58.731Z,928.31
2017-05-17T03:26:27.053Z,928.3
2017-05-17T03:26:55.367Z,928.28
2017-05-17T03:27:23.713Z,928.22
2017-05-17T03:27:52.007Z,928.26
2017-05-17T03:29:03.385Z,928.25
2017-05-17T03:29:31.792Z,928.17
2017-05-17T03:30:00.066Z,928.18
2017-05-17T03:30:28.110Z,928.17
2017-05-17T03:30:56.370Z,928.13
2017-05-17T03:31:24.633Z,928.14
2017-05-17T03:31:52.959Z,928.12
2017-05-17T03:32:21.374Z,928.09
2017-05-17T03:32:49.692Z,928.1
2017-05-17T03:33:18.039Z,928.09
2017-05-17T03:33:46.332Z,928.08
2017-05-17T03:34:57.625Z,928.07
2017-05-17T03:35:26.030Z,928.07
2017-05-17T03:35:54.410Z,928.09
2017-05-17T03:36:22.715Z,928.12
2017-05-17T03:36:50.877Z,928.1
2017-05-17T03:37:18.958Z,928.08
2017-05-17T03:37:47.194Z,928.13
2017-05-17T03:38:15.602Z,928.12
2017-05-17T03:38:43.830Z,928.13
2017-05-17T03:39:12.090Z,928.11
2017-05-17T03:39:40.391Z,928.11
2017-05-17T03:40:51.768Z,928.15
2017-05-17T03:41:19.987Z,928.14
2017-05-17T03:41:48.258Z,928.16
2017-05-17T03:42:16.489Z,928.16
2017-05-17T03:42:44.748Z,928.16
2017-05-17T03:43:13.106Z,928.15
2017-05-17T03:43:41.689Z,928.12
2017-05-17T03:44:10.101Z,928.2
2017-05-17T03:44:38.513Z,928.17
2017-05-17T03:45:06.675Z,928.18
2017-05-17T03:45:34.965Z,928.19
2017-05-17T03:46:46.282Z,928.16
2017-05-17T03:47:14.594Z,928.23
2017-05-17T03:47:42.961Z,928.18
2017-05-17T03:48:11.095Z,928.14
2017-05-17T03:48:39.256Z,928.14
2017-05-17T03:49:07.613Z,928.15
2017-05-17T03:49:35.943Z,928.14
2017-05-17T03:50:04.259Z,928.12
2017-05-17T03:50:32.483Z,928.11
2017-05-17T03:51:00.736Z,928.13
2017-05-17T03:51:29.033Z,928.11
2017-05-17T03:52:40.417Z,928.12
2017-05-17T03:53:08.451Z,928.15
2017-05-17T03:53:36.730Z,928.18
2017-05-17T03:54:04.872Z,928.16
2017-05-17T03:54:33.034Z,928.15
2017-05-17T03:55:01.297Z,928.13
2017-05-17T03:55:29.438Z,928.18
2017-05-17T03:55:57.763Z,928.18
2017-05-17T03:56:25.986Z,928.2
2017-05-17T03:56:54.243Z,928.15
2017-05-17T03:57:22.447Z,928.22
2017-05-17T03:58:33.734Z,928.2
2017-05-17T03:59:01.866Z,928.22
2017-05-17T03:59:30.048Z,928.22
2017-05-17T03:59:58.099Z,928.22
2017-05-17T04:00:26.267Z,928.24
2017-05-17T04:00:54.620Z,928.22
2017-05-17T04:01:22.950Z,928.23
2017-05-17T04:01:51.186Z,928.22
2017-05-17T04:02:19.416Z,928.23
2017-05-17T04:02:47.669Z,928.22
2017-05-17T04:03:15.968Z,928.26
2017-05-17T04:04:27.262Z,928.22
2017-05-17T04:04:55.575Z,928.16
2017-05-17T04:05:23.847Z,928.17
2017-05-17T04:05:52.174Z,928.2
2017-05-17T04:06:20.434Z,928.16
2017-05-17T04:06:48.656Z,928.15
2017-05-17T04:07:16.841Z,928.12
2017-05-17T04:07:45.166Z,928.18
2017-05-17T04:08:13.306Z,928.19
2017-05-17T04:08:41.565Z,928.19
2017-05-17T04:09:09.766Z,928.16
2017-05-17T04:10:21.236Z,928.17
2017-05-17T04:10:49.550Z,928.23
2017-05-17T04:11:17.821Z,928.23
2017-05-17T04:11:46.056Z,928.22
2017-05-17T04:12:14.315Z,928.27
2017-05-17T04:12:42.670Z,928.25
2017-05-17T04:13:10.904Z,928.28
2017-05-17T04:13:39.323Z,928.32
2017-05-17T04:14:07.641Z,928.26
2017-05-17T04:14:35.710Z,928.28
2017-05-17T04:15:03.818Z,928.25
2017-05-17T04:16:15.289Z,928.3
2017-05-17T04:16:43.505Z,928.27
2017-05-17T04:17:11.779Z,928.26
2017-05-17T04:17:39.921Z,928.28
2017-05-17T04:18:08.090Z,928.24
2017-05-17T04:18:36.355Z,928.28
2017-05-17T04:19:04.493Z,928.28
2017-05-17T04:19:32.908Z,928.32
2017-05-17T04:20:01.374Z,928.29
2017-05-17T04:20:29.670Z,928.29
2017-05-17T04:20:57.964Z,928.26
2017-05-17T04:22:09.339Z,928.26
2017-05-17T04:22:37.650Z,928.19
2017-05-17T04:23:06.014Z,928.22
2017-05-17T04:23:34.159Z,928.24
2017-05-17T04:24:02.508Z,928.2
2017-05-17T04:24:30.765Z,928.22
2017-05-17T04:24:58.907Z,928.17
2017-05-17T04:25:27.234Z,928.18
2017-05-17T04:25:55.561Z,928.18
2017-05-17T04:26:23.817Z,928.16
2017-05-17T04:26:52.210Z,928.1
2017-05-17T04:28:03.688Z,928.13
2017-05-17T04:28:31.999Z,928.05
2017-05-17T04:29:00.274Z,928.03
2017-05-17T04:29:28.406Z,928.02
2017-05-17T04:29:56.761Z,927.98
2017-05-17T04:30:25.020Z,928.01
2017-05-17T04:30:53.397Z,928.01
2017-05-17T04:31:21.767Z,927.98
2017-05-17T04:31:49.995Z,927.94
2017-05-17T04:32:18.338Z,927.92
2017-05-17T04:32:46.443Z,927.97
2017-05-17T04:33:57.827Z,927.98
2017-05-17T04:34:26.141Z,927.98
2017-05-17T04:34:54.509Z,928.01
2017-05-17T04:35:22.836Z,928.01
2017-05-17T04:35:50.994Z,927.99
2017-05-17T04:36:19.347Z,927.96
2017-05-17T04:36:47.583Z,927.99
2017-05-17T04:37:15.916Z,927.98
2017-05-17T04:37:44.234Z,928.03
2017-05-17T04:38:12.579Z,928.01
2017-05-17T04:38:40.968Z,928.01
2017-05-17T04:39:52.449Z,928.01
2017-05-17T04:40:20.860Z,928.05
2017-05-17T04:40:49.232Z,928.02
2017-05-17T04:41:17.469Z,928.02
2017-05-17T04:41:45.817Z,927.98
2017-05-17T04:42:14.187Z,927.97
2017-05-17T04:42:42.514Z,927.98
2017-05-17T04:43:10.923Z,927.97
2017-05-17T04:43:39.336Z,927.97
2017-05-17T04:44:07.593Z,927.96
2017-05-17T04:44:35.890Z,927.97
2017-05-17T04:45:47.176Z,927.96
2017-05-17T04:46:15.486Z,927.97
2017-05-17T04:46:43.668Z,927.94
2017-05-17T04:47:11.807Z,927.95
2017-05-17T04:47:40.163Z,927.97
2017-05-17T04:48:08.518Z,927.93
2017-05-17T04:48:36.755Z,927.93
2017-05-17T04:49:05.166Z,927.93
2017-05-17T04:49:33.485Z,927.91
2017-05-17T04:50:01.743Z,927.91
2017-05-17T04:50:30.135Z,927.89
2017-05-17T04:51:41.424Z,927.9
2017-05-17T04:52:09.645Z,928
2017-05-17T04:52:37.920Z,927.93
2017-05-17T04:53:06.149Z,927.93
2017-05-17T04:53:34.411Z,927.9
2017-05-17T04:54:02.763Z,927.91
2017-05-17T04:54:31.000Z,927.91
2017-05-17T04:54:59.223Z,927.92
2017-05-17T04:55:27.449Z,927.89
2017-05-17T04:55:55.799Z,927.83
2017-05-17T04:56:24.001Z,927.82
2017-05-17T04:57:35.475Z,927.78
2017-05-17T04:58:03.885Z,927.78
2017-05-17T04:58:32.068Z,927.74
2017-05-17T04:59:00.302Z,927.75
2017-05-17T04:59:28.554Z,927.8
2017-05-17T04:59:56.812Z,927.77
2017-05-17T05:00:24.950Z,927.79
2017-05-17T05:00:53.186Z,927.78
2017-05-17T05:01:21.598Z,927.76
2017-05-17T05:01:49.940Z,927.81
2017-05-17T05:02:18.229Z,927.78
2017-05-17T05:03:29.708Z,927.8
2017-05-17T05:03:58.115Z,927.8
2017-05-17T05:04:26.486Z,927.81
2017-05-17T05:04:54.719Z,927.78
2017-05-17T05:05:22.880Z,927.76
2017-05-17T05:05:51.050Z,927.76
2017-05-17T05:06:19.378Z,927.75
2017-05-17T05:06:47.702Z,927.77
2017-05-17T05:07:16.029Z,927.74
2017-05-17T05:07:44.383Z,927.74
2017-05-17T05:08:12.777Z,927.74
2017-05-17T05:09:24.246Z,927.71
2017-05-17T05:09:52.656Z,927.69
2017-05-17T05:10:20.930Z,927.67
2017-05-17T05:10:49.255Z,927.67
2017-05-17T05:11:17.598Z,927.65
2017-05-17T05:11:45.952Z,927.64
2017-05-17T05:12:14.089Z,927.68
2017-05-17T05:12:42.413Z,927.66
2017-05-17T05:13:10.829Z,927.66
2017-05-17T05:13:39.183Z,927.6
2017-05-17T05:14:07.386Z,927.63
2017-05-17T05:15:18.771Z,927.61
2017-05-17T05:15:47.084Z,927.6
2017-05-17T05:16:15.355Z,927.59
2017-05-17T05:16:43.590Z,927.6
2017-05-17T05:17:11.847Z,927.58
2017-05-17T05:17:40.019Z,927.59
2017-05-17T05:18:08.256Z,927.62
2017-05-17T05:18:36.678Z,927.6
2017-05-17T05:19:05.094Z,927.6
2017-05-17T05:19:33.255Z,927.55
2017-05-17T05:20:01.549Z,927.57
2017-05-17T05:21:13.024Z,927.55
2017-05-17T05:21:41.434Z,927.55
2017-05-17T05:22:09.711Z,927.49
2017-05-17T05:22:37.947Z,927.46
2017-05-17T05:23:06.111Z,927.5
2017-05-17T05:23:34.376Z,927.48
2017-05-17T05:24:02.706Z,927.46
2017-05-17T05:24:31.119Z,927.47
2017-05-17T05:24:59.531Z,927.5
2017-05-17T05:25:27.789Z,927.44
2017-05-17T05:25:56.084Z,927.45
2017-05-17T05:27:07.471Z,927.41
2017-05-17T05:27:35.700Z,927.44
2017-05-17T05:28:04.071Z,927.47
2017-05-17T05:28:32.396Z,927.41
2017-05-17T05:29:00.658Z,927.44
2017-05-17T05:29:29.018Z,927.4
2017-05-17T05:29:57.250Z,927.38
2017-05-17T05:30:25.480Z,927.39
2017-05-17T05:30:53.705Z,927.44
2017-05-17T05:31:21.867Z,927.38
2017-05-17T05:31:50.167Z,927.38
2017-05-17T05:33:01.637Z,927.39
2017-05-17T05:33:30.049Z,927.38
2017-05-17T05:33:58.227Z,927.36
2017-05-17T05:34:26.559Z,927.36
2017-05-17T05:34:54.915Z,927.38
2017-05-17T05:35:23.273Z,927.32
2017-05-17T05:35:51.327Z,927.33
2017-05-17T05:36:19.651Z,927.31
2017-05-17T05:36:48.058Z,927.32
2017-05-17T05:37:16.219Z,927.34
2017-05-17T05:37:44.616Z,927.29
2017-05-17T05:38:56.097Z,927.33
2017-05-17T05:39:24.506Z,927.32
2017-05-17T05:39:52.878Z,927.34
2017-05-17T05:40:21.016Z,927.34
2017-05-17T05:40:49.369Z,927.37
2017-05-17T05:41:17.782Z,927.37
2017-05-17T05:41:45.954Z,927.35
2017-05-17T05:42:14.275Z,927.24
2017-05-17T05:42:42.499Z,927.29
2017-05-17T05:43:10.750Z,927.33
2017-05-17T05:43:39.044Z,927.31
2017-05-17T05:44:50.424Z,927.31
2017-05-17T05:45:18.739Z,927.34
2017-05-17T05:45:47.105Z,927.31
2017-05-17T05:46:15.429Z,927.36
2017-05-17T05:46:43.680Z,927.36
2017-05-17T05:47:11.852Z,927.34
2017-05-17T05:47:40.175Z,927.3
2017-05-17T05:48:08.494Z,927.32
2017-05-17T05:48:36.911Z,927.31
2017-05-17T05:49:05.068Z,927.39
2017-05-17T05:49:33.455Z,927.33
2017-05-17T05:50:44.834Z,927.32
2017-05-17T05:51:13.149Z,927.31
2017-05-17T05:51:41.322Z,927.35
2017-05-17T05:52:09.555Z,927.39
2017-05-17T05:52:37.718Z,927.35
2017-05-17T05:53:05.891Z,927.35
2017-05-17T05:53:34.121Z,927.35
2017-05-17T05:54:02.444Z,927.38
2017-05-17T05:54:30.761Z,927.37
2017-05-17T05:54:59.013Z,927.34
2017-05-17T05:55:27.309Z,927.29
2017-05-17T05:56:38.599Z,927.3
2017-05-17T05:57:07.004Z,927.26
2017-05-17T05:57:35.286Z,927.31
2017-05-17T05:58:03.613Z,927.28
2017-05-17T05:58:31.588Z,927.22
2017-05-17T05:58:59.668Z,927.28
2017-05-17T05:59:27.809Z,927.28
2017-05-17T05:59:55.948Z,927.27
2017-05-17T06:00:24.171Z,927.24
2017-05-17T06:00:52.511Z,927.26
2017-05-17T06:01:20.900Z,927.26
2017-05-17T06:02:32.372Z,927.32
2017-05-17T06:03:00.590Z,927.3
2017-05-17T06:03:28.864Z,927.24
2017-05-17T06:03:57.251Z,927.25
2017-05-17T06:04:25.441Z,927.24
2017-05-17T06:04:53.705Z,927.25
2017-05-17T06:05:21.674Z,927.24
2017-05-17T06:05:50.082Z,927.2
2017-05-17T06:06:18.493Z,927.23
2017-05-17T06:06:46.834Z,927.2
2017-05-17T06:07:15.128Z,927.24
2017-05-17T06:08:26.436Z,927.23
2017-05-17T06:08:54.653Z,927.22
2017-05-17T06:09:22.923Z,927.24
2017-05-17T06:09:50.881Z,927.25
2017-05-17T06:10:19.133Z,927.26
2017-05-17T06:10:47.305Z,927.23
2017-05-17T06:11:15.638Z,927.25
2017-05-17T06:11:43.772Z,927.25
2017-05-17T06:12:12.182Z,927.24
2017-05-17T06:12:40.531Z,927.23
2017-05-17T06:13:08.918Z,927.24
2017-05-17T06:14:20.407Z,927.26
2017-05-17T06:14:48.811Z,927.22
2017-05-17T06:15:17.182Z,927.23
2017-05-17T06:15:45.511Z,927.22
2017-05-17T06:16:13.764Z,927.22
2017-05-17T06:16:42.119Z,927.18
2017-05-17T06:17:10.447Z,927.22
2017-05-17T06:17:38.672Z,927.2
2017-05-17T06:18:07.088Z,927.18
2017-05-17T06:18:35.152Z,927.19
2017-05-17T06:19:03.541Z,927.19
2017-05-17T06:20:14.923Z,927.21
2017-05-17T06:20:43.146Z,927.18
2017-05-17T06:21:11.414Z,927.21
2017-05-17T06:21:39.738Z,927.21
2017-05-17T06:22:07.994Z,927.18
2017-05-17T06:22:36.263Z,927.24
2017-05-17T06:23:04.587Z,927.2
2017-05-17T06:23:33.003Z,927.21
2017-05-17T06:24:01.341Z,927.19
2017-05-17T06:24:29.590Z,927.19
2017-05-17T06:24:57.840Z,927.16
2017-05-17T06:26:09.172Z,927.19
2017-05-17T06:26:37.392Z,927.23
2017-05-17T06:27:05.752Z,927.25
2017-05-17T06:27:33.795Z,927.24
2017-05-17T06:28:02.141Z,927.26
2017-05-17T06:28:30.319Z,927.22
2017-05-17T06:28:58.650Z,927.21
2017-05-17T06:29:27.055Z,927.19
2017-05-17T06:29:55.372Z,927.2
2017-05-17T06:30:23.628Z,927.22
2017-05-17T06:30:51.827Z,927.21
2017-05-17T06:32:03.206Z,927.17
2017-05-17T06:32:31.515Z,927.21
2017-05-17T06:32:59.787Z,927.2
2017-05-17T06:33:28.018Z,927.19
2017-05-17T06:33:56.319Z,927.18
2017-05-17T06:34:24.595Z,927.17
2017-05-17T06:34:52.919Z,927.18
2017-05-17T06:35:21.142Z,927.18
2017-05-17T06:35:49.455Z,927.19
2017-05-17T06:36:17.800Z,927.17
2017-05-17T06:36:45.998Z,927.18
2017-05-17T06:37:57.289Z,927.18
2017-05-17T06:38:25.607Z,927.18
2017-05-17T06:38:53.967Z,927.16
2017-05-17T06:39:22.199Z,927.16
2017-05-17T06:39:50.452Z,927.13
2017-05-17T06:40:18.618Z,927.15
2017-05-17T06:40:46.949Z,927.16
2017-05-17T06:41:15.178Z,927.2
2017-05-17T06:41:43.409Z,927.19
2017-05-17T06:42:11.662Z,927.19
2017-05-17T06:42:39.865Z,927.17